AAL9020 KPDX-KLAX
Flight info
| Callsign | AAL9020 |
|---|---|
| Flight time | N/A |
| Altitude | 35000 |
| Route | HRMNS6 HYJOE JAGWA BURGL IRNMN2 |
| Aircraft | A320/M-SDE3FGHIRWY/LB1 |
Departure
| Time | N/A |
|---|---|
| Airport | Portland International Airport (KPDX) |
Arrival
| Time | 2026-05-05 03:34 |
|---|---|
| Airport | Los Angeles International Airport (KLAX) |
| Time | Latitude | Longitude | Altitude | Speed | Heading |
|---|---|---|---|---|---|
| 2026-05-05 03:05 | 35.54235 | -120.01444 | 35034 ft | 458 kts | 153° |
| 2026-05-05 03:06 | 35.48771 | -119.97333 | 35049 ft | 457 kts | 153° |
| 2026-05-05 03:06 | 35.43376 | -119.93282 | 35041 ft | 457 kts | 153° |
| 2026-05-05 03:07 | 35.37952 | -119.89213 | 35035 ft | 457 kts | 153° |
| 2026-05-05 03:07 | 35.32557 | -119.85177 | 35048 ft | 456 kts | 153° |
| 2026-05-05 03:08 | 35.27231 | -119.80895 | 35032 ft | 460 kts | 148° |
| 2026-05-05 03:08 | 35.22154 | -119.76132 | 35021 ft | 459 kts | 148° |
| 2026-05-05 03:09 | 35.17095 | -119.71389 | 35020 ft | 458 kts | 148° |
| 2026-05-05 03:09 | 35.12054 | -119.66690 | 35022 ft | 457 kts | 149° |
| 2026-05-05 03:09 | 35.09517 | -119.64331 | 34893 ft | 457 kts | 149° |
| 2026-05-05 03:10 | 35.06988 | -119.61976 | 34673 ft | 457 kts | 149° |
| 2026-05-05 03:10 | 35.04459 | -119.59626 | 34419 ft | 457 kts | 149° |
| 2026-05-05 03:10 | 35.01925 | -119.57273 | 33516 ft | 460 kts | 149° |
| 2026-05-05 03:10 | 34.99366 | -119.54903 | 32429 ft | 463 kts | 149° |
| 2026-05-05 03:11 | 34.96798 | -119.52528 | 31398 ft | 464 kts | 150° |
| 2026-05-05 03:11 | 34.94222 | -119.50145 | 30320 ft | 465 kts | 150° |
| 2026-05-05 03:11 | 34.91654 | -119.47764 | 29414 ft | 461 kts | 149° |
| 2026-05-05 03:11 | 34.89101 | -119.45414 | 28580 ft | 458 kts | 149° |
| 2026-05-05 03:12 | 34.86536 | -119.43098 | 27768 ft | 458 kts | 149° |
| 2026-05-05 03:12 | 34.84009 | -119.40846 | 26983 ft | 454 kts | 150° |
| 2026-05-05 03:12 | 34.81468 | -119.38591 | 26220 ft | 449 kts | 150° |
| 2026-05-05 03:12 | 34.78963 | -119.36363 | 25470 ft | 443 kts | 149° |
| 2026-05-05 03:13 | 34.76487 | -119.34158 | 24747 ft | 438 kts | 149° |
| 2026-05-05 03:13 | 34.74060 | -119.31991 | 24414 ft | 426 kts | 149° |
| 2026-05-05 03:13 | 34.71701 | -119.29899 | 24184 ft | 411 kts | 149° |
| 2026-05-05 03:13 | 34.69414 | -119.27894 | 23950 ft | 399 kts | 149° |
| 2026-05-05 03:14 | 34.67172 | -119.25949 | 23718 ft | 394 kts | 150° |
| 2026-05-05 03:14 | 34.64946 | -119.24029 | 23532 ft | 392 kts | 150° |
| 2026-05-05 03:14 | 34.62720 | -119.22114 | 23399 ft | 391 kts | 150° |
| 2026-05-05 03:14 | 34.60497 | -119.20212 | 23265 ft | 390 kts | 150° |
| 2026-05-05 03:15 | 34.58310 | -119.18338 | 23054 ft | 389 kts | 150° |
| 2026-05-05 03:15 | 34.56101 | -119.16441 | 22675 ft | 388 kts | 149° |
| 2026-05-05 03:15 | 34.53914 | -119.14537 | 22133 ft | 385 kts | 149° |
| 2026-05-05 03:15 | 34.51748 | -119.12621 | 21510 ft | 385 kts | 148° |
| 2026-05-05 03:16 | 34.49585 | -119.10696 | 20868 ft | 387 kts | 148° |
| 2026-05-05 03:16 | 34.47409 | -119.08757 | 20239 ft | 387 kts | 148° |
| 2026-05-05 03:16 | 34.45224 | -119.06815 | 19630 ft | 388 kts | 148° |
| 2026-05-05 03:16 | 34.43082 | -119.04918 | 19023 ft | 380 kts | 148° |
| 2026-05-05 03:17 | 34.40971 | -119.03072 | 18418 ft | 368 kts | 148° |
| 2026-05-05 03:17 | 34.38906 | -119.01284 | 18006 ft | 362 kts | 148° |
| 2026-05-05 03:17 | 34.36842 | -118.99507 | 17560 ft | 364 kts | 148° |
| 2026-05-05 03:17 | 34.34783 | -118.97735 | 17098 ft | 361 kts | 148° |
| 2026-05-05 03:18 | 34.32750 | -118.95962 | 16524 ft | 361 kts | 147° |
| 2026-05-05 03:18 | 34.30732 | -118.94151 | 16024 ft | 359 kts | 147° |
| 2026-05-05 03:18 | 34.28752 | -118.92343 | 15419 ft | 361 kts | 146° |
| 2026-05-05 03:18 | 34.26783 | -118.90534 | 14811 ft | 351 kts | 146° |
| 2026-05-05 03:19 | 34.22924 | -118.86994 | 13446 ft | 345 kts | 146° |
| 2026-05-05 03:19 | 34.21034 | -118.85254 | 13104 ft | 331 kts | 146° |
| 2026-05-05 03:19 | 34.19275 | -118.83626 | 12774 ft | 313 kts | 146° |
| 2026-05-05 03:20 | 34.17562 | -118.82045 | 12515 ft | 306 kts | 146° |
| 2026-05-05 03:20 | 34.15889 | -118.80470 | 12257 ft | 304 kts | 143° |
| 2026-05-05 03:20 | 34.14285 | -118.78804 | 12094 ft | 303 kts | 141° |
| 2026-05-05 03:20 | 34.12722 | -118.77093 | 11951 ft | 302 kts | 140° |
| 2026-05-05 03:21 | 34.11174 | -118.75368 | 11823 ft | 304 kts | 140° |
| 2026-05-05 03:21 | 34.09620 | -118.73637 | 11702 ft | 303 kts | 141° |
| 2026-05-05 03:21 | 34.08066 | -118.71923 | 11501 ft | 303 kts | 141° |
| 2026-05-05 03:21 | 34.06534 | -118.70247 | 11206 ft | 298 kts | 141° |
| 2026-05-05 03:22 | 34.05016 | -118.68589 | 10868 ft | 289 kts | 140° |
| 2026-05-05 03:22 | 34.03716 | -118.66756 | 10532 ft | 288 kts | 124° |
| 2026-05-05 03:22 | 34.02888 | -118.64560 | 10206 ft | 289 kts | 108° |
| 2026-05-05 03:22 | 34.02562 | -118.62174 | 9859 ft | 288 kts | 98° |
| 2026-05-05 03:23 | 34.02342 | -118.59773 | 9522 ft | 286 kts | 98° |
| 2026-05-05 03:23 | 34.02123 | -118.57391 | 9236 ft | 285 kts | 98° |
| 2026-05-05 03:23 | 34.01899 | -118.54995 | 8953 ft | 284 kts | 98° |
| 2026-05-05 03:23 | 34.01673 | -118.52599 | 8380 ft | 289 kts | 98° |
| 2026-05-05 03:24 | 34.01444 | -118.50174 | 7793 ft | 293 kts | 98° |
| 2026-05-05 03:24 | 34.01222 | -118.47815 | 7628 ft | 271 kts | 98° |
| 2026-05-05 03:24 | 34.01101 | -118.45664 | 7526 ft | 251 kts | 87° |
| 2026-05-05 03:24 | 34.01376 | -118.43608 | 7243 ft | 248 kts | 79° |
| 2026-05-05 03:25 | 34.01722 | -118.41589 | 6900 ft | 245 kts | 79° |
| 2026-05-05 03:25 | 34.02066 | -118.39585 | 6590 ft | 243 kts | 78° |
| 2026-05-05 03:25 | 34.02410 | -118.37593 | 6324 ft | 242 kts | 78° |
| 2026-05-05 03:25 | 34.02748 | -118.35606 | 6053 ft | 241 kts | 81° |
| 2026-05-05 03:26 | 34.03005 | -118.33615 | 5843 ft | 241 kts | 83° |
| 2026-05-05 03:26 | 34.03214 | -118.31615 | 5643 ft | 239 kts | 84° |
| 2026-05-05 03:26 | 34.03410 | -118.29636 | 5464 ft | 237 kts | 84° |
| 2026-05-05 03:26 | 34.03610 | -118.27663 | 5286 ft | 237 kts | 84° |
| 2026-05-05 03:27 | 34.03816 | -118.25695 | 5110 ft | 236 kts | 83° |
| 2026-05-05 03:27 | 34.04024 | -118.23743 | 4935 ft | 233 kts | 83° |
| 2026-05-05 03:27 | 34.04231 | -118.21808 | 4755 ft | 231 kts | 83° |
| 2026-05-05 03:27 | 34.04441 | -118.19888 | 4567 ft | 232 kts | 83° |
| 2026-05-05 03:28 | 34.04499 | -118.17965 | 4348 ft | 232 kts | 104° |
| 2026-05-05 03:28 | 34.03779 | -118.16280 | 4153 ft | 226 kts | 137° |
| 2026-05-05 03:28 | 34.02495 | -118.15241 | 3946 ft | 221 kts | 165° |
| 2026-05-05 03:28 | 34.00986 | -118.14994 | 3750 ft | 217 kts | 187° |
| 2026-05-05 03:29 | 33.99529 | -118.15396 | 3633 ft | 214 kts | 200° |
| 2026-05-05 03:29 | 33.98587 | -118.15759 | 3595 ft | 214 kts | 201° |
| 2026-05-05 03:29 | 33.96872 | -118.16900 | 3545 ft | 212 kts | 225° |
| 2026-05-05 03:29 | 33.96000 | -118.18261 | 3380 ft | 202 kts | 244° |
| 2026-05-05 03:30 | 33.95595 | -118.19855 | 3154 ft | 198 kts | 262° |
| 2026-05-05 03:30 | 33.95485 | -118.20943 | 2987 ft | 196 kts | 263° |
| 2026-05-05 03:30 | 33.95324 | -118.22567 | 2755 ft | 193 kts | 262° |
| 2026-05-05 03:30 | 33.95165 | -118.24146 | 2477 ft | 187 kts | 263° |
| 2026-05-05 03:31 | 33.95013 | -118.25657 | 2221 ft | 175 kts | 263° |
| 2026-05-05 03:31 | 33.94875 | -118.27032 | 2020 ft | 156 kts | 263° |
| 2026-05-05 03:31 | 33.94753 | -118.28241 | 1813 ft | 140 kts | 262° |
| 2026-05-05 03:31 | 33.94640 | -118.29352 | 1627 ft | 131 kts | 262° |
| 2026-05-05 03:32 | 33.94526 | -118.30430 | 1452 ft | 129 kts | 263° |
| 2026-05-05 03:32 | 33.94425 | -118.31507 | 1220 ft | 129 kts | 262° |
| 2026-05-05 03:32 | 33.94310 | -118.32568 | 1040 ft | 127 kts | 263° |
| 2026-05-05 03:32 | 33.94206 | -118.33624 | 838 ft | 128 kts | 262° |
| 2026-05-05 03:33 | 33.94105 | -118.34689 | 705 ft | 129 kts | 262° |
| 2026-05-05 03:33 | 33.93992 | -118.35763 | 533 ft | 128 kts | 262° |
| 2026-05-05 03:33 | 33.93888 | -118.36822 | 352 ft | 129 kts | 259° |
| 2026-05-05 03:33 | 33.93778 | -118.37881 | 192 ft | 126 kts | 261° |
| 2026-05-05 03:34 | 33.93675 | -118.38901 | 96 ft | 113 kts | 261° |
| 2026-05-05 03:34 | 33.93595 | -118.39655 | 98 ft | 66 kts | 263° |
| 2026-05-05 03:34 | 33.93560 | -118.40008 | 96 ft | 26 kts | 268° |
| 2026-05-05 03:34 | 33.93580 | -118.40214 | 95 ft | 14 kts | 286° |
| 2026-05-05 03:35 | 33.93612 | -118.40320 | 96 ft | 12 kts | 291° |
| 2026-05-05 03:35 | 33.93630 | -118.40425 | 95 ft | 14 kts | 263° |
| 2026-05-05 03:35 | 33.93615 | -118.40551 | 95 ft | 17 kts | 262° |
| 2026-05-05 03:35 | 33.93599 | -118.40701 | 94 ft | 19 kts | 263° |
| 2026-05-05 03:36 | 33.93599 | -118.40815 | 95 ft | 14 kts | 285° |
| 2026-05-05 03:36 | 33.93649 | -118.40893 | 97 ft | 11 kts | 345° |
| 2026-05-05 03:36 | 33.93724 | -118.40903 | 95 ft | 11 kts | 353° |
| 2026-05-05 03:36 | 33.93799 | -118.40915 | 93 ft | 11 kts | 352° |
| 2026-05-05 03:37 | 33.93863 | -118.40909 | 94 ft | 9 kts | 43° |
| 2026-05-05 03:37 | 33.93880 | -118.40807 | 93 ft | 19 kts | 83° |
| 2026-05-05 03:37 | 33.93896 | -118.40638 | 93 ft | 19 kts | 83° |
| 2026-05-05 03:37 | 33.93925 | -118.40538 | 94 ft | 8 kts | 14° |
| 2026-05-05 03:38 | 33.93982 | -118.40546 | 95 ft | 8 kts | 352° |
| 2026-05-05 03:38 | 33.94020 | -118.40530 | 94 ft | 6 kts | 68° |
| 2026-05-05 03:38 | 33.94025 | -118.40493 | 93 ft | 3 kts | 84° |
| 2026-05-05 03:38 | 33.94025 | -118.40489 | 93 ft | 0 kts | 84° |